<?xml version="1.0" encoding="UTF-8" standalone="no" ?>
<gpx xmlns="http://www.topografix.com/GPX/1/1" xmlns:xsi="http://www.w3.org/2001/XMLSchema-instance" xsi:schemaLocation="http://www.topografix.com/GPX/1/1 http://www.topografix.com/GPX/1/1/gpx.xsd" version="1.1" creator="VisuGPX - https://www.visugpx.com">
  <metadata>
    <name>Ventoux</name>
    <desc><![CDATA[Départ Rémuzat Col d\'EY, col de Fontaube, col des Aires, Ventoux par Sault, descente sur Malaucène, Vaison la Romaine, dernier col de la croix rouge par Chateauneuf de la Bordette.]]></desc>
  </metadata>
  <trk>
    <name><![CDATA[ACTIVE LOG193922]]></name>
    <trkseg>
      <trkpt lat="44.42256" lon="5.32918">
        <ele>429.531</ele>
        <time>2013-05-06T17:39:22Z</time>
      </trkpt>
      <trkpt lat="44.42256" lon="5.32918">
        <ele>430.08</ele>
        <time>2013-05-06T17:39:31Z</time>
      </trkpt>
      <trkpt lat="44.42195" lon="5.33056">
        <ele>430.498</ele>
        <time>2013-05-06T17:39:36Z</time>
      </trkpt>
      <trkpt lat="44.42192" lon="5.33062">
        <ele>430.498</ele>
        <time>2013-05-06T17:39:37Z</time>
      </trkpt>
      <trkpt lat="44.42137" lon="5.33099">
        <ele>431.113</ele>
        <time>2013-05-06T17:39:42Z</time>
      </trkpt>
      <trkpt lat="44.42135" lon="5.331">
        <ele>430.916</ele>
        <time>2013-05-06T17:39:45Z</time>
      </trkpt>
      <trkpt lat="44.42097" lon="5.33099">
        <ele>432.761</ele>
        <time>2013-05-06T17:39:50Z</time>
      </trkpt>
      <trkpt lat="44.42041" lon="5.33065">
        <ele>433.054</ele>
        <time>2013-05-06T17:40:00Z</time>
      </trkpt>
      <trkpt lat="44.41982" lon="5.33028">
        <ele>434.549</ele>
        <time>2013-05-06T17:40:11Z</time>
      </trkpt>
      <trkpt lat="44.41934" lon="5.33027">
        <ele>435.467</ele>
        <time>2013-05-06T17:40:19Z</time>
      </trkpt>
      <trkpt lat="44.41921" lon="5.33039">
        <ele>435.257</ele>
        <time>2013-05-06T17:40:22Z</time>
      </trkpt>
      <trkpt lat="44.419" lon="5.33071">
        <ele>435.804</ele>
        <time>2013-05-06T17:40:29Z</time>
      </trkpt>
      <trkpt lat="44.41898" lon="5.33077">
        <ele>435.883</ele>
        <time>2013-05-06T17:40:30Z</time>
      </trkpt>
      <trkpt lat="44.41887" lon="5.33136">
        <ele>437</ele>
        <time>2013-05-06T17:40:39Z</time>
      </trkpt>
      <trkpt lat="44.41881" lon="5.33191">
        <ele>438.392</ele>
        <time>2013-05-06T17:40:47Z</time>
      </trkpt>
      <trkpt lat="44.41878" lon="5.33205">
        <ele>438.4</ele>
        <time>2013-05-06T17:40:49Z</time>
      </trkpt>
      <trkpt lat="44.4186" lon="5.33238">
        <ele>438.638</ele>
        <time>2013-05-06T17:40:55Z</time>
      </trkpt>
      <trkpt lat="44.41851" lon="5.33244">
        <ele>438.731</ele>
        <time>2013-05-06T17:40:57Z</time>
      </trkpt>
      <trkpt lat="44.41781" lon="5.33279">
        <ele>440.197</ele>
        <time>2013-05-06T17:41:11Z</time>
      </trkpt>
      <trkpt lat="44.41717" lon="5.33322">
        <ele>441.195</ele>
        <time>2013-05-06T17:41:24Z</time>
      </trkpt>
      <trkpt lat="44.41666" lon="5.33372">
        <ele>443.278</ele>
        <time>2013-05-06T17:41:36Z</time>
      </trkpt>
      <trkpt lat="44.41631" lon="5.33423">
        <ele>443.85</ele>
        <time>2013-05-06T17:41:46Z</time>
      </trkpt>
      <trkpt lat="44.41589" lon="5.3349">
        <ele>444.476</ele>
        <time>2013-05-06T17:41:58Z</time>
      </trkpt>
      <trkpt lat="44.41544" lon="5.33575">
        <ele>444.154</ele>
        <time>2013-05-06T17:42:11Z</time>
      </trkpt>
      <trkpt lat="44.41494" lon="5.33683">
        <ele>444.546</ele>
        <time>2013-05-06T17:42:27Z</time>
      </trkpt>
      <trkpt lat="44.41451" lon="5.33778">
        <ele>444.497</ele>
        <time>2013-05-06T17:42:41Z</time>
      </trkpt>
      <trkpt lat="44.4141" lon="5.3388">
        <ele>445.651</ele>
        <time>2013-05-06T17:42:56Z</time>
      </trkpt>
      <trkpt lat="44.41377" lon="5.33965">
        <ele>445.623</ele>
        <time>2013-05-06T17:43:08Z</time>
      </trkpt>
      <trkpt lat="44.41341" lon="5.34056">
        <ele>446.833</ele>
        <time>2013-05-06T17:43:21Z</time>
      </trkpt>
      <trkpt lat="44.41313" lon="5.34126">
        <ele>447.362</ele>
        <time>2013-05-06T17:43:31Z</time>
      </trkpt>
      <trkpt lat="44.41285" lon="5.34205">
        <ele>447.866</ele>
        <time>2013-05-06T17:43:42Z</time>
      </trkpt>
      <trkpt lat="44.41275" lon="5.34285">
        <ele>448.924</ele>
        <time>2013-05-06T17:43:52Z</time>
      </trkpt>
      <trkpt lat="44.41259" lon="5.34424">
        <ele>449.576</ele>
        <time>2013-05-06T17:44:09Z</time>
      </trkpt>
      <trkpt lat="44.41252" lon="5.34514">
        <ele>450.315</ele>
        <time>2013-05-06T17:44:20Z</time>
      </trkpt>
      <trkpt lat="44.41245" lon="5.34605">
        <ele>450.835</ele>
        <time>2013-05-06T17:44:31Z</time>
      </trkpt>
      <trkpt lat="44.41223" lon="5.34656">
        <ele>451.5</ele>
        <time>2013-05-06T17:44:38Z</time>
      </trkpt>
      <trkpt lat="44.41175" lon="5.34734">
        <ele>451.934</ele>
        <time>2013-05-06T17:44:50Z</time>
      </trkpt>
      <trkpt lat="44.4113" lon="5.34788">
        <ele>452.487</ele>
        <time>2013-05-06T17:45:00Z</time>
      </trkpt>
      <trkpt lat="44.41078" lon="5.34831">
        <ele>452.852</ele>
        <time>2013-05-06T17:45:10Z</time>
      </trkpt>
      <trkpt lat="44.41027" lon="5.34861">
        <ele>452.924</ele>
        <time>2013-05-06T17:45:19Z</time>
      </trkpt>
      <trkpt lat="44.4101" lon="5.34871">
        <ele>452.62</ele>
        <time>2013-05-06T17:45:22Z</time>
      </trkpt>
      <trkpt lat="44.41003" lon="5.349">
        <ele>453.07</ele>
        <time>2013-05-06T17:45:26Z</time>
      </trkpt>
      <trkpt lat="44.41005" lon="5.34908">
        <ele>452.873</ele>
        <time>2013-05-06T17:45:27Z</time>
      </trkpt>
      <trkpt lat="44.41035" lon="5.34992">
        <ele>449.539</ele>
        <time>2013-05-06T17:45:37Z</time>
      </trkpt>
      <trkpt lat="44.41066" lon="5.35051">
        <ele>446.703</ele>
        <time>2013-05-06T17:45:44Z</time>
      </trkpt>
      <trkpt lat="44.41127" lon="5.35148">
        <ele>447.975</ele>
        <time>2013-05-06T17:45:57Z</time>
      </trkpt>
      <trkpt lat="44.41159" lon="5.35199">
        <ele>446.511</ele>
        <time>2013-05-06T17:46:04Z</time>
      </trkpt>
      <trkpt lat="44.41213" lon="5.35285">
        <ele>449.868</ele>
        <time>2013-05-06T17:46:16Z</time>
      </trkpt>
      <trkpt lat="44.41226" lon="5.35306">
        <ele>448.603</ele>
        <time>2013-05-06T17:46:19Z</time>
      </trkpt>
      <trkpt lat="44.41283" lon="5.35388">
        <ele>449.993</ele>
        <time>2013-05-06T17:46:31Z</time>
      </trkpt>
      <trkpt lat="44.41322" lon="5.35453">
        <ele>450.364</ele>
        <time>2013-05-06T17:46:40Z</time>
      </trkpt>
      <trkpt lat="44.41361" lon="5.35518">
        <ele>451.778</ele>
        <time>2013-05-06T17:46:49Z</time>
      </trkpt>
      <trkpt lat="44.41396" lon="5.35563">
        <ele>452.136</ele>
        <time>2013-05-06T17:46:59Z</time>
      </trkpt>
      <trkpt lat="44.41427" lon="5.35587">
        <ele>452.82</ele>
        <time>2013-05-06T17:47:08Z</time>
      </trkpt>
      <trkpt lat="44.41456" lon="5.35608">
        <ele>452.191</ele>
        <time>2013-05-06T17:47:15Z</time>
      </trkpt>
      <trkpt lat="44.41461" lon="5.35611">
        <ele>451.906</ele>
        <time>2013-05-06T17:47:16Z</time>
      </trkpt>
      <trkpt lat="44.41484" lon="5.35627">
        <ele>451.967</ele>
        <time>2013-05-06T17:47:20Z</time>
      </trkpt>
      <trkpt lat="44.41501" lon="5.35639">
        <ele>451.816</ele>
        <time>2013-05-06T17:47:24Z</time>
      </trkpt>
      <trkpt lat="44.4149" lon="5.35669">
        <ele>451.625</ele>
        <time>2013-05-06T17:47:28Z</time>
      </trkpt>
      <trkpt lat="44.41498" lon="5.35698">
        <ele>451.938</ele>
        <time>2013-05-06T17:47:32Z</time>
      </trkpt>
      <trkpt lat="44.41506" lon="5.35708">
        <ele>450.965</ele>
        <time>2013-05-06T17:47:36Z</time>
      </trkpt>
      <trkpt lat="44.41506" lon="5.35708">
        <ele>452.418</ele>
        <time>2013-05-06T17:47:43Z</time>
      </trkpt>
      <trkpt lat="44.41588" lon="5.35686">
        <ele>452.346</ele>
        <time>2013-05-06T17:47:49Z</time>
      </trkpt>
      <trkpt lat="44.41616" lon="5.35699">
        <ele>452.359</ele>
        <time>2013-05-06T17:47:57Z</time>
      </trkpt>
      <trkpt lat="44.41626" lon="5.35703">
        <ele>452.341</ele>
        <time>2013-05-06T17:48:00Z</time>
      </trkpt>
      <trkpt lat="44.41613" lon="5.35783">
        <ele>452.553</ele>
        <time>2013-05-06T17:48:04Z</time>
      </trkpt>
      <trkpt lat="44.41607" lon="5.35806">
        <ele>453.234</ele>
        <time>2013-05-06T17:48:12Z</time>
      </trkpt>
      <trkpt lat="44.41604" lon="5.35806">
        <ele>453.134</ele>
        <time>2013-05-06T17:48:25Z</time>
      </trkpt>
    </trkseg>
  </trk>
</gpx>